sensor_id;sensor_type;location;lat;lon;timestamp;temperature;humidity
7562;DHT22;3822;48.784;9.174;2023-04-28T00:01:08;15.70;67.10
7562;DHT22;3822;48.784;9.174;2023-04-28T00:03:38;15.70;67.10
7562;DHT22;3822;48.784;9.174;2023-04-28T00:06:07;15.60;67.00
7562;DHT22;3822;48.784;9.174;2023-04-28T00:08:34;15.60;66.90
7562;DHT22;3822;48.784;9.174;2023-04-28T00:11:00;15.60;66.90
7562;DHT22;3822;48.784;9.174;2023-04-28T00:13:31;15.60;66.80
7562;DHT22;3822;48.784;9.174;2023-04-28T00:16:05;15.60;66.90
7562;DHT22;3822;48.784;9.174;2023-04-28T00:18:33;15.60;67.00
7562;DHT22;3822;48.784;9.174;2023-04-28T00:21:05;15.70;67.30
7562;DHT22;3822;48.784;9.174;2023-04-28T00:23:47;15.60;67.40
7562;DHT22;3822;48.784;9.174;2023-04-28T00:26:17;15.60;67.50
7562;DHT22;3822;48.784;9.174;2023-04-28T00:28:43;15.60;67.60
7562;DHT22;3822;48.784;9.174;2023-04-28T00:31:10;15.60;67.60
7562;DHT22;3822;48.784;9.174;2023-04-28T00:33:45;15.60;67.70
7562;DHT22;3822;48.784;9.174;2023-04-28T00:36:21;15.60;68.20
7562;DHT22;3822;48.784;9.174;2023-04-28T00:38:47;15.60;68.00
7562;DHT22;3822;48.784;9.174;2023-04-28T00:41:19;15.60;68.00
7562;DHT22;3822;48.784;9.174;2023-04-28T00:43:53;15.60;68.10
7562;DHT22;3822;48.784;9.174;2023-04-28T00:46:20;15.60;68.20
7562;DHT22;3822;48.784;9.174;2023-04-28T00:48:50;15.60;68.30
7562;DHT22;3822;48.784;9.174;2023-04-28T00:51:27;15.60;68.40
7562;DHT22;3822;48.784;9.174;2023-04-28T00:54:03;15.60;68.50
7562;DHT22;3822;48.784;9.174;2023-04-28T00:56:33;15.60;68.60
7562;DHT22;3822;48.784;9.174;2023-04-28T00:59:05;15.60;68.70
7562;DHT22;3822;48.784;9.174;2023-04-28T01:01:34;15.50;68.70
7562;DHT22;3822;48.784;9.174;2023-04-28T01:04:01;15.50;68.90
7562;DHT22;3822;48.784;9.174;2023-04-28T01:06:33;15.60;69.00
7562;DHT22;3822;48.784;9.174;2023-04-28T01:09:00;15.60;69.20
7562;DHT22;3822;48.784;9.174;2023-04-28T01:11:28;15.60;69.20
7562;DHT22;3822;48.784;9.174;2023-04-28T01:14:00;15.60;69.40
7562;DHT22;3822;48.784;9.174;2023-04-28T01:16:26;15.60;69.60
7562;DHT22;3822;48.784;9.174;2023-04-28T01:18:53;15.50;69.50
7562;DHT22;3822;48.784;9.174;2023-04-28T01:24:02;15.60;69.80
7562;DHT22;3822;48.784;9.174;2023-04-28T01:26:33;15.60;69.80
7562;DHT22;3822;48.784;9.174;2023-04-28T01:28:59;15.50;69.80
7562;DHT22;3822;48.784;9.174;2023-04-28T01:31:26;15.50;69.90
7562;DHT22;3822;48.784;9.174;2023-04-28T01:33:52;15.50;70.60
7562;DHT22;3822;48.784;9.174;2023-04-28T01:36:22;15.60;70.10
7562;DHT22;3822;48.784;9.174;2023-04-28T01:38:49;15.50;70.20
7562;DHT22;3822;48.784;9.174;2023-04-28T01:41:16;15.50;70.30
7562;DHT22;3822;48.784;9.174;2023-04-28T01:43:45;15.50;70.30
7562;DHT22;3822;48.784;9.174;2023-04-28T01:46:13;15.50;70.40
7562;DHT22;3822;48.784;9.174;2023-04-28T01:48:40;15.50;70.50
7562;DHT22;3822;48.784;9.174;2023-04-28T01:51:06;15.50;70.40
7562;DHT22;3822;48.784;9.174;2023-04-28T01:53:33;15.50;70.50
7562;DHT22;3822;48.784;9.174;2023-04-28T01:58:46;15.50;70.60
7562;DHT22;3822;48.784;9.174;2023-04-28T02:01:18;16.00;71.10
7562;DHT22;3822;48.784;9.174;2023-04-28T02:03:44;15.50;70.70
7562;DHT22;3822;48.784;9.174;2023-04-28T02:06:14;15.50;70.80
7562;DHT22;3822;48.784;9.174;2023-04-28T02:08:42;15.50;70.90
7562;DHT22;3822;48.784;9.174;2023-04-28T02:13:41;15.50;71.20
7562;DHT22;3822;48.784;9.174;2023-04-28T02:16:07;15.50;71.20
7562;DHT22;3822;48.784;9.174;2023-04-28T02:18:37;15.50;71.30
7562;DHT22;3822;48.784;9.174;2023-04-28T02:21:07;15.50;71.40
7562;DHT22;3822;48.784;9.174;2023-04-28T02:23:39;15.50;72.10
7562;DHT22;3822;48.784;9.174;2023-04-28T02:26:05;15.50;71.50
7562;DHT22;3822;48.784;9.174;2023-04-28T02:28:31;16.20;72.80
7562;DHT22;3822;48.784;9.174;2023-04-28T02:31:09;15.50;71.50
7562;DHT22;3822;48.784;9.174;2023-04-28T02:33:39;15.50;71.40
7562;DHT22;3822;48.784;9.174;2023-04-28T02:36:09;15.40;71.30
7562;DHT22;3822;48.784;9.174;2023-04-28T02:38:39;15.40;71.50
7562;DHT22;3822;48.784;9.174;2023-04-28T02:41:07;15.50;71.70
7562;DHT22;3822;48.784;9.174;2023-04-28T02:43:39;15.50;71.80
7562;DHT22;3822;48.784;9.174;2023-04-28T02:46:06;15.50;72.00
7562;DHT22;3822;48.784;9.174;2023-04-28T02:48:32;15.50;72.10
7562;DHT22;3822;48.784;9.174;2023-04-28T02:51:03;15.50;72.30
7562;DHT22;3822;48.784;9.174;2023-04-28T02:53:30;15.50;72.40
7562;DHT22;3822;48.784;9.174;2023-04-28T02:55:56;15.50;72.30
7562;DHT22;3822;48.784;9.174;2023-04-28T02:58:25;15.50;72.40
7562;DHT22;3822;48.784;9.174;2023-04-28T03:00:52;15.50;72.50
7562;DHT22;3822;48.784;9.174;2023-04-28T03:03:18;15.50;72.50
7562;DHT22;3822;48.784;9.174;2023-04-28T03:05:49;15.50;72.60
7562;DHT22;3822;48.784;9.174;2023-04-28T03:08:15;15.50;72.80
7562;DHT22;3822;48.784;9.174;2023-04-28T03:10:44;15.50;72.80
7562;DHT22;3822;48.784;9.174;2023-04-28T03:13:15;15.50;73.10
7562;DHT22;3822;48.784;9.174;2023-04-28T03:15:41;15.50;73.40
7562;DHT22;3822;48.784;9.174;2023-04-28T03:18:14;15.50;73.60
7562;DHT22;3822;48.784;9.174;2023-04-28T03:23:16;15.60;74.30
7562;DHT22;3822;48.784;9.174;2023-04-28T03:25:43;15.50;74.50
7562;DHT22;3822;48.784;9.174;2023-04-28T03:28:13;15.50;74.80
7562;DHT22;3822;48.784;9.174;2023-04-28T03:30:39;15.60;74.90
7562;DHT22;3822;48.784;9.174;2023-04-28T03:33:08;15.50;74.70
7562;DHT22;3822;48.784;9.174;2023-04-28T03:35:38;15.50;74.60
7562;DHT22;3822;48.784;9.174;2023-04-28T03:38:04;15.50;74.60
7562;DHT22;3822;48.784;9.174;2023-04-28T03:40:31;15.50;74.60
7562;DHT22;3822;48.784;9.174;2023-04-28T03:43:07;15.60;74.80
7562;DHT22;3822;48.784;9.174;2023-04-28T03:45:33;15.60;75.20
7562;DHT22;3822;48.784;9.174;2023-04-28T03:48:01;16.90;76.60
7562;DHT22;3822;48.784;9.174;2023-04-28T03:50:28;15.60;75.80
7562;DHT22;3822;48.784;9.174;2023-04-28T03:52:56;15.50;76.10
7562;DHT22;3822;48.784;9.174;2023-04-28T03:55:25;15.50;76.20
7562;DHT22;3822;48.784;9.174;2023-04-28T03:57:52;15.50;76.70
7562;DHT22;3822;48.784;9.174;2023-04-28T04:00:18;15.50;76.80
7562;DHT22;3822;48.784;9.174;2023-04-28T04:02:44;15.50;77.00
7562;DHT22;3822;48.784;9.174;2023-04-28T04:05:14;15.50;77.20
7562;DHT22;3822;48.784;9.174;2023-04-28T04:07:49;15.50;77.50
7562;DHT22;3822;48.784;9.174;2023-04-28T04:10:16;15.50;77.70
7562;DHT22;3822;48.784;9.174;2023-04-28T04:12:43;15.50;77.90
7562;DHT22;3822;48.784;9.174;2023-04-28T04:15:13;15.50;78.10
7562;DHT22;3822;48.784;9.174;2023-04-28T04:17:43;15.50;78.20
7562;DHT22;3822;48.784;9.174;2023-04-28T04:22:40;15.50;78.40
7562;DHT22;3822;48.784;9.174;2023-04-28T04:25:06;15.50;78.40
7562;DHT22;3822;48.784;9.174;2023-04-28T04:27:43;15.50;78.50
7562;DHT22;3822;48.784;9.174;2023-04-28T04:30:09;15.50;78.60
7562;DHT22;3822;48.784;9.174;2023-04-28T04:32:38;15.50;78.70
7562;DHT22;3822;48.784;9.174;2023-04-28T04:35:04;15.50;79.60
7562;DHT22;3822;48.784;9.174;2023-04-28T04:37:32;15.50;79.10
7562;DHT22;3822;48.784;9.174;2023-04-28T04:40:05;15.50;79.30
7562;DHT22;3822;48.784;9.174;2023-04-28T04:42:32;15.50;79.30
7562;DHT22;3822;48.784;9.174;2023-04-28T04:44:58;15.50;79.40
7562;DHT22;3822;48.784;9.174;2023-04-28T04:47:27;15.80;79.80
7562;DHT22;3822;48.784;9.174;2023-04-28T04:49:55;15.50;79.80
7562;DHT22;3822;48.784;9.174;2023-04-28T04:52:22;15.50;80.00
7562;DHT22;3822;48.784;9.174;2023-04-28T04:54:49;15.50;80.20
7562;DHT22;3822;48.784;9.174;2023-04-28T04:57:21;15.50;80.30
7562;DHT22;3822;48.784;9.174;2023-04-28T04:59:47;15.50;80.60
7562;DHT22;3822;48.784;9.174;2023-04-28T05:02:14;15.50;80.80
7562;DHT22;3822;48.784;9.174;2023-04-28T05:04:43;15.50;81.10
7562;DHT22;3822;48.784;9.174;2023-04-28T05:07:09;15.50;81.40
7562;DHT22;3822;48.784;9.174;2023-04-28T05:09:47;15.50;81.70
7562;DHT22;3822;48.784;9.174;2023-04-28T05:12:14;15.60;82.20
7562;DHT22;3822;48.784;9.174;2023-04-28T05:14:42;15.50;82.90
7562;DHT22;3822;48.784;9.174;2023-04-28T05:17:08;15.50;82.90
7562;DHT22;3822;48.784;9.174;2023-04-28T05:19:37;15.50;83.20
7562;DHT22;3822;48.784;9.174;2023-04-28T05:22:06;15.40;83.20
7562;DHT22;3822;48.784;9.174;2023-04-28T05:24:33;15.40;83.80
7562;DHT22;3822;48.784;9.174;2023-04-28T05:27:00;15.40;84.30
7562;DHT22;3822;48.784;9.174;2023-04-28T05:29:26;15.40;84.70
7562;DHT22;3822;48.784;9.174;2023-04-28T05:31:59;15.30;85.70
7562;DHT22;3822;48.784;9.174;2023-04-28T05:34:25;14.90;86.20
7562;DHT22;3822;48.784;9.174;2023-04-28T05:36:54;15.30;86.90
7562;DHT22;3822;48.784;9.174;2023-04-28T05:39:22;15.30;87.70
7562;DHT22;3822;48.784;9.174;2023-04-28T05:41:48;15.30;88.10
7562;DHT22;3822;48.784;9.174;2023-04-28T05:44:20;15.30;88.40
7562;DHT22;3822;48.784;9.174;2023-04-28T05:46:48;15.30;88.70
7562;DHT22;3822;48.784;9.174;2023-04-28T05:51:47;15.20;89.30
7562;DHT22;3822;48.784;9.174;2023-04-28T05:54:20;15.30;89.80
7562;DHT22;3822;48.784;9.174;2023-04-28T05:56:46;15.30;90.00
7562;DHT22;3822;48.784;9.174;2023-04-28T05:59:13;15.30;90.20
7562;DHT22;3822;48.784;9.174;2023-04-28T06:01:48;15.30;90.40
7562;DHT22;3822;48.784;9.174;2023-04-28T06:04:18;15.30;90.40
7562;DHT22;3822;48.784;9.174;2023-04-28T06:06:47;15.30;90.60
7562;DHT22;3822;48.784;9.174;2023-04-28T06:09:13;15.30;90.90
7562;DHT22;3822;48.784;9.174;2023-04-28T06:11:43;15.30;91.00
7562;DHT22;3822;48.784;9.174;2023-04-28T06:14:09;15.30;91.00
7562;DHT22;3822;48.784;9.174;2023-04-28T06:16:38;15.30;91.00
7562;DHT22;3822;48.784;9.174;2023-04-28T06:19:06;15.20;91.50
7562;DHT22;3822;48.784;9.174;2023-04-28T06:21:33;15.30;91.50
7562;DHT22;3822;48.784;9.174;2023-04-28T06:24:00;15.20;91.50
7562;DHT22;3822;48.784;9.174;2023-04-28T06:26:26;15.30;91.70
7562;DHT22;3822;48.784;9.174;2023-04-28T06:29:01;15.30;91.80
7562;DHT22;3822;48.784;9.174;2023-04-28T06:31:31;15.30;91.90
7562;DHT22;3822;48.784;9.174;2023-04-28T06:33:57;15.30;92.20
7562;DHT22;3822;48.784;9.174;2023-04-28T06:36:23;15.30;92.30
7562;DHT22;3822;48.784;9.174;2023-04-28T06:38:50;15.30;92.30
7562;DHT22;3822;48.784;9.174;2023-04-28T06:41:19;15.30;92.60
7562;DHT22;3822;48.784;9.174;2023-04-28T06:43:46;15.30;92.90
7562;DHT22;3822;48.784;9.174;2023-04-28T06:46:12;15.30;92.80
7562;DHT22;3822;48.784;9.174;2023-04-28T06:48:38;15.30;92.90
7562;DHT22;3822;48.784;9.174;2023-04-28T06:51:08;15.30;92.90
7562;DHT22;3822;48.784;9.174;2023-04-28T06:53:34;15.30;93.20
7562;DHT22;3822;48.784;9.174;2023-04-28T06:56:13;15.30;93.10
7562;DHT22;3822;48.784;9.174;2023-04-28T06:58:43;15.30;93.20
7562;DHT22;3822;48.784;9.174;2023-04-28T07:01:10;15.30;93.20
7562;DHT22;3822;48.784;9.174;2023-04-28T07:03:36;15.40;93.30
7562;DHT22;3822;48.784;9.174;2023-04-28T07:06:12;15.40;93.30
7562;DHT22;3822;48.784;9.174;2023-04-28T07:08:38;15.40;93.40
7562;DHT22;3822;48.784;9.174;2023-04-28T07:11:07;15.40;93.50
7562;DHT22;3822;48.784;9.174;2023-04-28T07:13:33;16.90;94.20
7562;DHT22;3822;48.784;9.174;2023-04-28T07:16:00;15.40;93.60
7562;DHT22;3822;48.784;9.174;2023-04-28T07:18:27;15.40;93.60
7562;DHT22;3822;48.784;9.174;2023-04-28T07:20:57;15.40;93.70
7562;DHT22;3822;48.784;9.174;2023-04-28T07:23:25;15.40;93.70
7562;DHT22;3822;48.784;9.174;2023-04-28T07:25:54;15.40;93.90
7562;DHT22;3822;48.784;9.174;2023-04-28T07:28:20;15.40;93.90
7562;DHT22;3822;48.784;9.174;2023-04-28T07:30:47;15.40;93.90
7562;DHT22;3822;48.784;9.174;2023-04-28T07:33:13;15.40;93.90
7562;DHT22;3822;48.784;9.174;2023-04-28T07:35:42;15.50;94.10
7562;DHT22;3822;48.784;9.174;2023-04-28T07:38:11;15.50;94.20
7562;DHT22;3822;48.784;9.174;2023-04-28T07:40:41;15.50;94.10
7562;DHT22;3822;48.784;9.174;2023-04-28T07:43:11;15.50;94.20
7562;DHT22;3822;48.784;9.174;2023-04-28T07:45:41;15.50;94.20
7562;DHT22;3822;48.784;9.174;2023-04-28T07:48:11;15.60;94.20
7562;DHT22;3822;48.784;9.174;2023-04-28T07:50:40;15.60;94.30
7562;DHT22;3822;48.784;9.174;2023-04-28T07:53:07;15.60;94.40
7562;DHT22;3822;48.784;9.174;2023-04-28T07:55:33;15.60;94.40
7562;DHT22;3822;48.784;9.174;2023-04-28T07:58:00;15.60;94.60
7562;DHT22;3822;48.784;9.174;2023-04-28T08:00:29;15.70;94.70
7562;DHT22;3822;48.784;9.174;2023-04-28T08:02:56;15.60;94.80
7562;DHT22;3822;48.784;9.174;2023-04-28T08:05:22;15.60;95.10
7562;DHT22;3822;48.784;9.174;2023-04-28T08:07:53;15.60;95.20
7562;DHT22;3822;48.784;9.174;2023-04-28T08:10:19;15.60;95.60
7562;DHT22;3822;48.784;9.174;2023-04-28T08:12:46;15.60;95.90
7562;DHT22;3822;48.784;9.174;2023-04-28T08:15:12;15.60;96.30
7562;DHT22;3822;48.784;9.174;2023-04-28T08:17:45;15.60;96.40
7562;DHT22;3822;48.784;9.174;2023-04-28T08:20:12;15.60;96.60
7562;DHT22;3822;48.784;9.174;2023-04-28T08:22:43;15.50;96.90
7562;DHT22;3822;48.784;9.174;2023-04-28T08:25:09;15.00;96.70
7562;DHT22;3822;48.784;9.174;2023-04-28T08:27:41;15.50;97.10
7562;DHT22;3822;48.784;9.174;2023-04-28T08:30:09;15.50;97.20
7562;DHT22;3822;48.784;9.174;2023-04-28T08:32:47;15.50;97.30
7562;DHT22;3822;48.784;9.174;2023-04-28T08:35:16;15.50;97.40
7562;DHT22;3822;48.784;9.174;2023-04-28T08:37:48;15.50;98.10
7562;DHT22;3822;48.784;9.174;2023-04-28T08:40:17;15.40;98.50
7562;DHT22;3822;48.784;9.174;2023-04-28T08:42:44;15.40;98.50
7562;DHT22;3822;48.784;9.174;2023-04-28T08:45:19;15.30;98.50
7562;DHT22;3822;48.784;9.174;2023-04-28T08:47:47;15.30;98.70
7562;DHT22;3822;48.784;9.174;2023-04-28T08:50:23;15.20;99.20
7562;DHT22;3822;48.784;9.174;2023-04-28T08:52:54;15.20;99.10
7562;DHT22;3822;48.784;9.174;2023-04-28T08:55:22;15.20;99.10
7562;DHT22;3822;48.784;9.174;2023-04-28T08:57:55;15.20;99.00
7562;DHT22;3822;48.784;9.174;2023-04-28T09:00:22;15.20;99.00
7562;DHT22;3822;48.784;9.174;2023-04-28T09:02:52;15.20;99.00
7562;DHT22;3822;48.784;9.174;2023-04-28T09:05:19;15.30;99.00
7562;DHT22;3822;48.784;9.174;2023-04-28T09:07:45;15.30;99.00
7562;DHT22;3822;48.784;9.174;2023-04-28T09:10:17;15.30;99.10
7562;DHT22;3822;48.784;9.174;2023-04-28T09:12:44;15.40;99.20
7562;DHT22;3822;48.784;9.174;2023-04-28T09:15:14;15.10;99.30
7562;DHT22;3822;48.784;9.174;2023-04-28T09:18:06;15.30;99.30
7562;DHT22;3822;48.784;9.174;2023-04-28T09:20:33;15.30;99.30
7562;DHT22;3822;48.784;9.174;2023-04-28T09:23:19;15.30;99.30
7562;DHT22;3822;48.784;9.174;2023-04-28T09:30:57;15.40;99.40
7562;DHT22;3822;48.784;9.174;2023-04-28T09:33:24;15.50;99.50
7562;DHT22;3822;48.784;9.174;2023-04-28T09:35:53;15.50;99.50
7562;DHT22;3822;48.784;9.174;2023-04-28T09:38:20;15.50;99.60
7562;DHT22;3822;48.784;9.174;2023-04-28T09:40:54;15.60;99.70
7562;DHT22;3822;48.784;9.174;2023-04-28T09:43:31;15.60;99.70
7562;DHT22;3822;48.784;9.174;2023-04-28T09:45:59;15.70;99.80
7562;DHT22;3822;48.784;9.174;2023-04-28T09:48:29;15.70;99.80
7562;DHT22;3822;48.784;9.174;2023-04-28T09:50:55;17.30;99.90
7562;DHT22;3822;48.784;9.174;2023-04-28T09:53:22;15.80;99.80
7562;DHT22;3822;48.784;9.174;2023-04-28T09:55:53;15.90;99.90
7562;DHT22;3822;48.784;9.174;2023-04-28T09:58:22;16.00;99.90
7562;DHT22;3822;48.784;9.174;2023-04-28T10:00:56;15.70;99.90
7562;DHT22;3822;48.784;9.174;2023-04-28T10:03:29;16.10;99.90
7562;DHT22;3822;48.784;9.174;2023-04-28T10:05:56;16.20;99.90
7562;DHT22;3822;48.784;9.174;2023-04-28T10:08:23;16.20;99.90
7562;DHT22;3822;48.784;9.174;2023-04-28T10:10:57;16.30;99.90
7562;DHT22;3822;48.784;9.174;2023-04-28T10:13:23;16.40;99.90
7562;DHT22;3822;48.784;9.174;2023-04-28T10:15:52;16.50;99.90
7562;DHT22;3822;48.784;9.174;2023-04-28T10:18:22;16.50;99.90
7562;DHT22;3822;48.784;9.174;2023-04-28T10:20:54;16.60;99.90
7562;DHT22;3822;48.784;9.174;2023-04-28T10:26:12;16.70;99.90
7562;DHT22;3822;48.784;9.174;2023-04-28T10:28:49;16.80;99.90
7562;DHT22;3822;48.784;9.174;2023-04-28T10:31:20;16.90;99.90
7562;DHT22;3822;48.784;9.174;2023-04-28T10:34:15;17.10;99.90
7562;DHT22;3822;48.784;9.174;2023-04-28T10:36:52;17.10;99.90
7562;DHT22;3822;48.784;9.174;2023-04-28T10:39:20;17.10;99.90
7562;DHT22;3822;48.784;9.174;2023-04-28T10:41:46;17.20;99.90
7562;DHT22;3822;48.784;9.174;2023-04-28T10:58:33;17.60;99.90
7562;DHT22;3822;48.784;9.174;2023-04-28T11:00:54;17.70;99.90
7562;DHT22;3822;48.784;9.174;2023-04-28T11:08:58;17.90;99.90
7562;DHT22;3822;48.784;9.174;2023-04-28T11:11:30;18.00;99.90
7562;DHT22;3822;48.784;9.174;2023-04-28T11:17:06;18.10;99.90
7562;DHT22;3822;48.784;9.174;2023-04-28T11:22:17;18.30;99.90
7562;DHT22;3822;48.784;9.174;2023-04-28T11:24:57;18.30;99.90
7562;DHT22;3822;48.784;9.174;2023-04-28T11:27:29;18.40;99.80
7562;DHT22;3822;48.784;9.174;2023-04-28T11:29:56;19.50;99.90
7562;DHT22;3822;48.784;9.174;2023-04-28T11:32:30;18.40;99.30
7562;DHT22;3822;48.784;9.174;2023-04-28T11:34:57;18.50;99.00
7562;DHT22;3822;48.784;9.174;2023-04-28T11:37:23;18.60;98.90
7562;DHT22;3822;48.784;9.174;2023-04-28T11:39:53;18.60;98.90
7562;DHT22;3822;48.784;9.174;2023-04-28T11:42:19;18.60;98.70
7562;DHT22;3822;48.784;9.174;2023-04-28T11:44:53;18.70;98.60
7562;DHT22;3822;48.784;9.174;2023-04-28T11:47:29;18.80;98.60
7562;DHT22;3822;48.784;9.174;2023-04-28T11:49:58;18.80;98.40
7562;DHT22;3822;48.784;9.174;2023-04-28T11:52:31;18.90;98.20
7562;DHT22;3822;48.784;9.174;2023-04-28T11:54:57;19.00;98.00
7562;DHT22;3822;48.784;9.174;2023-04-28T11:57:33;19.00;97.80
7562;DHT22;3822;48.784;9.174;2023-04-28T12:00:18;19.10;97.60
7562;DHT22;3822;48.784;9.174;2023-04-28T12:02:47;19.10;97.40
7562;DHT22;3822;48.784;9.174;2023-04-28T12:05:24;19.10;97.10
7562;DHT22;3822;48.784;9.174;2023-04-28T12:07:53;19.20;97.00
7562;DHT22;3822;48.784;9.174;2023-04-28T12:10:19;19.30;96.80
7562;DHT22;3822;48.784;9.174;2023-04-28T12:12:46;19.30;96.60
7562;DHT22;3822;48.784;9.174;2023-04-28T12:15:16;20.00;96.50
7562;DHT22;3822;48.784;9.174;2023-04-28T12:17:43;19.40;96.10
7562;DHT22;3822;48.784;9.174;2023-04-28T12:20:11;19.50;96.00
7562;DHT22;3822;48.784;9.174;2023-04-28T12:22:55;19.50;95.60
7562;DHT22;3822;48.784;9.174;2023-04-28T12:25:21;19.50;95.30
7562;DHT22;3822;48.784;9.174;2023-04-28T12:28:00;19.50;95.20
7562;DHT22;3822;48.784;9.174;2023-04-28T12:30:33;19.60;95.20
7562;DHT22;3822;48.784;9.174;2023-04-28T12:33:04;19.60;94.70
7562;DHT22;3822;48.784;9.174;2023-04-28T12:35:30;19.60;94.50
7562;DHT22;3822;48.784;9.174;2023-04-28T12:37:59;19.70;94.30
7562;DHT22;3822;48.784;9.174;2023-04-28T12:40:28;19.60;94.30
7562;DHT22;3822;48.784;9.174;2023-04-28T12:42:54;19.70;94.40
7562;DHT22;3822;48.784;9.174;2023-04-28T12:45:21;19.70;94.30
7562;DHT22;3822;48.784;9.174;2023-04-28T12:47:48;19.70;94.20
7562;DHT22;3822;48.784;9.174;2023-04-28T12:50:20;19.80;94.20
7562;DHT22;3822;48.784;9.174;2023-04-28T12:52:47;19.70;94.30
7562;DHT22;3822;48.784;9.174;2023-04-28T12:55:15;19.80;94.60
7562;DHT22;3822;48.784;9.174;2023-04-28T12:57:41;19.80;94.50
7562;DHT22;3822;48.784;9.174;2023-04-28T13:00:10;19.80;95.40
7562;DHT22;3822;48.784;9.174;2023-04-28T13:02:41;19.80;96.40
7562;DHT22;3822;48.784;9.174;2023-04-28T13:05:07;19.60;96.90
7562;DHT22;3822;48.784;9.174;2023-04-28T13:07:34;19.60;97.10
7562;DHT22;3822;48.784;9.174;2023-04-28T13:10:03;19.50;97.30
7562;DHT22;3822;48.784;9.174;2023-04-28T13:12:29;19.40;97.10
7562;DHT22;3822;48.784;9.174;2023-04-28T13:14:56;19.30;97.20
7562;DHT22;3822;48.784;9.174;2023-04-28T13:17:22;19.30;97.10
7562;DHT22;3822;48.784;9.174;2023-04-28T13:19:51;19.30;97.20
7562;DHT22;3822;48.784;9.174;2023-04-28T13:22:17;19.30;97.20
7562;DHT22;3822;48.784;9.174;2023-04-28T13:24:44;19.30;97.20
7562;DHT22;3822;48.784;9.174;2023-04-28T13:27:11;19.40;97.10
7562;DHT22;3822;48.784;9.174;2023-04-28T13:29:40;19.40;97.20
7562;DHT22;3822;48.784;9.174;2023-04-28T13:32:07;19.50;97.30
7562;DHT22;3822;48.784;9.174;2023-04-28T13:34:33;19.50;97.00
7562;DHT22;3822;48.784;9.174;2023-04-28T13:37:00;19.50;96.90
7562;DHT22;3822;48.784;9.174;2023-04-28T13:39:38;19.60;96.80
7562;DHT22;3822;48.784;9.174;2023-04-28T13:42:05;19.50;96.50
7562;DHT22;3822;48.784;9.174;2023-04-28T13:44:32;19.50;96.40
7562;DHT22;3822;48.784;9.174;2023-04-28T13:47:03;19.30;96.20
7562;DHT22;3822;48.784;9.174;2023-04-28T13:49:36;19.30;96.20
7562;DHT22;3822;48.784;9.174;2023-04-28T13:52:04;19.30;96.10
7562;DHT22;3822;48.784;9.174;2023-04-28T13:54:31;20.50;96.60
7562;DHT22;3822;48.784;9.174;2023-04-28T13:57:00;19.20;96.10
7562;DHT22;3822;48.784;9.174;2023-04-28T13:59:26;19.20;96.10
7562;DHT22;3822;48.784;9.174;2023-04-28T14:01:52;19.20;96.00
7562;DHT22;3822;48.784;9.174;2023-04-28T14:04:18;19.20;96.10
7562;DHT22;3822;48.784;9.174;2023-04-28T14:06:51;19.20;96.20
7562;DHT22;3822;48.784;9.174;2023-04-28T14:09:17;19.10;96.10
7562;DHT22;3822;48.784;9.174;2023-04-28T14:11:44;19.10;96.20
7562;DHT22;3822;48.784;9.174;2023-04-28T14:14:16;19.10;96.30
7562;DHT22;3822;48.784;9.174;2023-04-28T14:16:42;19.00;96.30
7562;DHT22;3822;48.784;9.174;2023-04-28T14:19:08;19.00;96.40
7562;DHT22;3822;48.784;9.174;2023-04-28T14:21:52;19.00;96.50
7562;DHT22;3822;48.784;9.174;2023-04-28T14:24:18;19.00;96.40
7562;DHT22;3822;48.784;9.174;2023-04-28T14:26:51;19.00;96.40
7562;DHT22;3822;48.784;9.174;2023-04-28T14:29:17;19.00;96.40
7562;DHT22;3822;48.784;9.174;2023-04-28T14:31:44;19.00;96.30
7562;DHT22;3822;48.784;9.174;2023-04-28T14:34:16;19.00;96.30
7562;DHT22;3822;48.784;9.174;2023-04-28T14:36:46;19.00;96.30
7562;DHT22;3822;48.784;9.174;2023-04-28T14:39:24;19.00;96.40
7562;DHT22;3822;48.784;9.174;2023-04-28T14:41:54;19.00;96.40
7562;DHT22;3822;48.784;9.174;2023-04-28T14:44:23;19.00;96.50
7562;DHT22;3822;48.784;9.174;2023-04-28T14:46:52;17.30;95.90
7562;DHT22;3822;48.784;9.174;2023-04-28T14:49:21;19.10;96.70
7562;DHT22;3822;48.784;9.174;2023-04-28T14:51:48;19.20;96.80
7562;DHT22;3822;48.784;9.174;2023-04-28T14:54:15;19.20;96.90
7562;DHT22;3822;48.784;9.174;2023-04-28T14:56:41;19.10;97.10
7562;DHT22;3822;48.784;9.174;2023-04-28T14:59:15;19.20;96.90
7562;DHT22;3822;48.784;9.174;2023-04-28T15:01:45;19.20;96.90
7562;DHT22;3822;48.784;9.174;2023-04-28T15:04:11;19.20;97.00
7562;DHT22;3822;48.784;9.174;2023-04-28T15:06:39;19.10;97.20
7562;DHT22;3822;48.784;9.174;2023-04-28T15:09:05;19.10;97.50
7562;DHT22;3822;48.784;9.174;2023-04-28T15:11:38;19.10;97.90
7562;DHT22;3822;48.784;9.174;2023-04-28T15:14:04;19.00;97.80
7562;DHT22;3822;48.784;9.174;2023-04-28T15:16:32;18.90;97.90
7562;DHT22;3822;48.784;9.174;2023-04-28T15:18:58;18.90;98.10
7562;DHT22;3822;48.784;9.174;2023-04-28T15:21:25;18.80;98.10
7562;DHT22;3822;48.784;9.174;2023-04-28T15:23:56;18.80;98.20
7562;DHT22;3822;48.784;9.174;2023-04-28T15:26:23;18.80;98.30
7562;DHT22;3822;48.784;9.174;2023-04-28T15:28:49;18.80;98.20
7562;DHT22;3822;48.784;9.174;2023-04-28T15:31:19;18.70;98.30
7562;DHT22;3822;48.784;9.174;2023-04-28T15:33:48;18.70;98.40
7562;DHT22;3822;48.784;9.174;2023-04-28T15:36:15;18.70;98.40
7562;DHT22;3822;48.784;9.174;2023-04-28T15:38:50;18.70;98.40
7562;DHT22;3822;48.784;9.174;2023-04-28T15:41:19;18.60;98.60
7562;DHT22;3822;48.784;9.174;2023-04-28T15:43:45;18.50;98.60
7562;DHT22;3822;48.784;9.174;2023-04-28T15:46:12;18.50;98.70
7562;DHT22;3822;48.784;9.174;2023-04-28T15:48:44;18.40;98.80
7562;DHT22;3822;48.784;9.174;2023-04-28T15:51:11;18.50;99.00
7562;DHT22;3822;48.784;9.174;2023-04-28T15:53:38;16.80;98.30
7562;DHT22;3822;48.784;9.174;2023-04-28T15:56:11;18.40;99.10
7562;DHT22;3822;48.784;9.174;2023-04-28T15:58:37;18.40;99.10
7562;DHT22;3822;48.784;9.174;2023-04-28T16:01:11;18.40;99.20
7562;DHT22;3822;48.784;9.174;2023-04-28T16:03:37;18.40;99.30
7562;DHT22;3822;48.784;9.174;2023-04-28T16:06:06;18.40;99.50
7562;DHT22;3822;48.784;9.174;2023-04-28T16:08:34;18.40;99.50
7562;DHT22;3822;48.784;9.174;2023-04-28T16:11:01;18.30;99.50
7562;DHT22;3822;48.784;9.174;2023-04-28T16:13:30;18.40;99.50
7562;DHT22;3822;48.784;9.174;2023-04-28T16:15:58;18.30;99.50
7562;DHT22;3822;48.784;9.174;2023-04-28T16:18:24;18.30;99.60
7562;DHT22;3822;48.784;9.174;2023-04-28T16:20:56;18.30;99.60
7562;DHT22;3822;48.784;9.174;2023-04-28T16:23:24;18.30;99.70
7562;DHT22;3822;48.784;9.174;2023-04-28T16:25:59;18.20;99.80
7562;DHT22;3822;48.784;9.174;2023-04-28T16:28:33;18.20;99.90
7562;DHT22;3822;48.784;9.174;2023-04-28T16:30:59;18.20;99.90
7562;DHT22;3822;48.784;9.174;2023-04-28T16:33:26;18.10;99.90
7562;DHT22;3822;48.784;9.174;2023-04-28T16:35:56;18.10;99.90
7562;DHT22;3822;48.784;9.174;2023-04-28T16:38:23;18.10;99.90
7562;DHT22;3822;48.784;9.174;2023-04-28T16:40:49;18.00;99.90
7562;DHT22;3822;48.784;9.174;2023-04-28T16:43:19;18.00;99.90
7562;DHT22;3822;48.784;9.174;2023-04-28T16:45:46;18.00;99.90
7562;DHT22;3822;48.784;9.174;2023-04-28T16:48:20;17.90;99.90
7562;DHT22;3822;48.784;9.174;2023-04-28T16:50:46;17.90;99.90
7562;DHT22;3822;48.784;9.174;2023-04-28T16:53:13;17.90;99.90
7562;DHT22;3822;48.784;9.174;2023-04-28T16:55:42;17.80;99.90
7562;DHT22;3822;48.784;9.174;2023-04-28T16:58:09;17.90;99.90
7562;DHT22;3822;48.784;9.174;2023-04-28T17:00:35;17.90;99.90
7562;DHT22;3822;48.784;9.174;2023-04-28T17:03:01;17.90;99.90